createdAt,value
2022-09-12T00:00:23.022Z,14.20
2022-09-12T00:05:16.393Z,14.01
2022-09-12T00:10:11.344Z,14.05
2022-09-12T00:15:05.552Z,14.11
2022-09-12T00:19:59.060Z,13.99
2022-09-12T00:24:52.290Z,14.02
2022-09-12T00:29:46.980Z,13.89
2022-09-12T00:34:40.265Z,13.73
2022-09-12T00:39:33.538Z,13.88
2022-09-12T00:44:51.703Z,13.89
2022-09-12T00:49:50.927Z,13.94
2022-09-12T00:54:51.133Z,13.94
2022-09-12T00:59:51.645Z,13.96
2022-09-12T01:04:47.631Z,13.84
2022-09-12T01:09:43.386Z,13.92
2022-09-12T01:14:37.050Z,14.01
2022-09-12T01:20:11.283Z,13.69
2022-09-12T01:25:21.571Z,13.54
2022-09-12T01:30:31.262Z,13.49
2022-09-12T01:35:33.616Z,13.48
2022-09-12T01:40:36.173Z,13.52
2022-09-12T01:45:40.356Z,13.37
2022-09-12T01:50:41.212Z,13.34
2022-09-12T01:55:43.190Z,13.39
2022-09-12T02:00:48.147Z,13.42
2022-09-12T02:05:48.462Z,13.49
2022-09-12T02:10:50.668Z,13.39
2022-09-12T02:15:50.571Z,13.10
2022-09-12T02:20:48.862Z,13.30
2022-09-12T02:25:47.462Z,13.27
2022-09-12T02:30:54.179Z,13.38
2022-09-12T02:35:55.146Z,13.21
2022-09-12T02:40:48.569Z,13.09
2022-09-12T02:45:42.255Z,13.02
2022-09-12T02:50:38.449Z,13.03
2022-09-12T02:55:33.338Z,13.11
2022-09-12T03:00:28.327Z,13.11
2022-09-12T03:05:30.095Z,12.95
2022-09-12T03:10:34.118Z,13.03
2022-09-12T03:15:49.776Z,13.05
2022-09-12T03:20:54.694Z,13.11
2022-09-12T03:25:57.183Z,13.18
2022-09-12T03:30:54.280Z,13.09
2022-09-12T03:35:49.666Z,13.16
2022-09-12T03:40:43.139Z,12.88
2022-09-12T03:45:38.479Z,12.92
2022-09-12T03:50:31.820Z,12.82
2022-09-12T03:55:25.253Z,12.82
2022-09-12T04:00:19.960Z,12.77
2022-09-12T04:05:14.903Z,12.87
2022-09-12T04:10:09.773Z,12.85
2022-09-12T04:15:03.119Z,12.57
2022-09-12T04:19:56.412Z,12.62
2022-09-12T04:24:50.976Z,12.69
2022-09-12T04:29:44.299Z,12.72
2022-09-12T04:34:37.579Z,12.73
2022-09-12T04:39:32.798Z,12.72
2022-09-12T04:44:27.435Z,12.75
2022-09-12T04:49:20.825Z,12.78
2022-09-12T04:54:17.857Z,12.95
2022-09-12T04:59:14.317Z,13.18
2022-09-12T05:04:10.952Z,13.20
2022-09-12T05:09:07.559Z,13.25
2022-09-12T05:14:01.318Z,13.29
2022-09-12T05:18:54.867Z,13.42
2022-09-12T05:23:54.102Z,13.49
2022-09-12T05:28:48.398Z,13.71
2022-09-12T05:33:44.202Z,13.74
2022-09-12T05:38:38.553Z,13.64
2022-09-12T05:43:33.429Z,13.70
2022-09-12T05:48:26.740Z,13.86
2022-09-12T05:53:20.567Z,13.92
2022-09-12T05:58:13.790Z,13.91
2022-09-12T06:03:08.392Z,13.90
2022-09-12T06:08:01.619Z,13.80
2022-09-12T06:12:54.818Z,13.84
2022-09-12T06:17:51.457Z,13.97
2022-09-12T06:22:48.018Z,14.11
2022-09-12T06:27:41.282Z,14.24
2022-09-12T06:32:34.879Z,14.34
2022-09-12T06:37:28.521Z,14.29
2022-09-12T06:42:23.283Z,14.18
2022-09-12T06:47:16.512Z,14.31
2022-09-12T06:52:09.734Z,14.44
2022-09-12T06:57:03.130Z,14.48
2022-09-12T07:02:03.181Z,14.55
2022-09-12T07:06:56.674Z,14.57
2022-09-12T07:11:49.992Z,14.68
2022-09-12T07:16:44.216Z,14.81
2022-09-12T07:21:40.865Z,14.93
2022-09-12T07:26:34.197Z,14.98
2022-09-12T07:31:29.271Z,15.13
2022-09-12T07:36:25.737Z,15.18
2022-09-12T07:41:23.319Z,15.20
2022-09-12T07:46:16.726Z,15.49
2022-09-12T07:51:13.289Z,15.89
2022-09-12T07:56:10.368Z,16.01
2022-09-12T08:01:06.249Z,15.95
2022-09-12T08:06:05.940Z,16.32
2022-09-12T08:10:59.936Z,16.47
2022-09-12T08:15:53.206Z,16.17
2022-09-12T08:20:48.452Z,16.09
2022-09-12T08:25:41.679Z,16.00
2022-09-12T08:30:35.268Z,16.10
2022-09-12T08:35:28.595Z,16.33
2022-09-12T08:40:23.203Z,16.96
2022-09-12T08:45:26.163Z,17.38
2022-09-12T08:50:23.263Z,17.58
2022-09-12T08:55:33.230Z,17.76
2022-09-12T09:00:38.239Z,17.71
2022-09-12T09:05:48.981Z,18.09
2022-09-12T09:10:53.133Z,18.11
2022-09-12T09:16:05.826Z,18.28
2022-09-12T09:21:06.539Z,18.56
2022-09-12T09:26:08.234Z,18.65
2022-09-12T09:31:01.735Z,18.75
2022-09-12T09:36:08.688Z,18.97
2022-09-12T09:41:40.944Z,19.15
2022-09-12T09:46:35.138Z,19.28
2022-09-12T09:51:34.447Z,19.01
2022-09-12T09:56:36.211Z,19.23
2022-09-12T10:01:33.465Z,19.44
2022-09-12T10:06:34.460Z,19.30
2022-09-12T10:11:33.593Z,19.54
2022-09-12T10:16:29.834Z,19.28
2022-09-12T10:21:33.440Z,19.07
2022-09-12T10:26:28.984Z,19.11
2022-09-12T10:31:30.253Z,19.44
2022-09-12T10:36:27.264Z,19.50
2022-09-12T10:41:21.866Z,19.59
2022-09-12T10:46:30.627Z,19.71
2022-09-12T10:51:29.956Z,19.55
2022-09-12T10:56:28.019Z,19.69
2022-09-12T11:01:41.432Z,19.62
2022-09-12T11:06:52.763Z,19.75
2022-09-12T11:12:04.766Z,19.71
2022-09-12T11:17:14.426Z,19.79
2022-09-12T11:22:42.069Z,20.00
2022-09-12T11:27:56.180Z,20.04
2022-09-12T11:33:25.334Z,20.02
2022-09-12T11:39:03.496Z,20.02
2022-09-12T11:44:10.957Z,19.94
2022-09-12T11:49:20.800Z,19.98
2022-09-12T11:54:25.914Z,20.09
2022-09-12T11:59:37.012Z,20.26
2022-09-12T12:04:43.239Z,20.39
2022-09-12T12:09:52.147Z,20.50
2022-09-12T12:14:57.614Z,20.64
2022-09-12T12:20:08.575Z,20.68
2022-09-12T12:25:29.638Z,20.61
2022-09-12T12:31:03.325Z,20.54
2022-09-12T12:36:09.548Z,20.56
2022-09-12T12:41:44.663Z,20.33
2022-09-12T12:46:40.001Z,20.30
2022-09-12T12:52:01.529Z,20.42
2022-09-12T12:57:17.524Z,20.41
2022-09-12T13:02:30.921Z,20.29
2022-09-12T13:07:37.329Z,20.32
2022-09-12T13:12:36.395Z,20.29
2022-09-12T13:17:40.175Z,20.26
2022-09-12T13:22:44.755Z,20.23
2022-09-12T13:27:38.307Z,20.15
2022-09-12T13:32:32.172Z,20.15
2022-09-12T13:37:56.119Z,20.30
2022-09-12T13:42:50.645Z,20.27
2022-09-12T13:47:46.355Z,20.39
2022-09-12T13:53:12.383Z,20.36
2022-09-12T13:58:36.924Z,20.41
2022-09-12T14:03:51.009Z,20.41
2022-09-12T14:08:51.656Z,20.46
2022-09-12T14:13:46.079Z,20.42
2022-09-12T14:18:45.103Z,20.56
2022-09-12T14:23:43.727Z,20.52
2022-09-12T14:28:47.380Z,20.55
2022-09-12T14:33:51.058Z,20.63
2022-09-12T14:38:48.070Z,20.67
2022-09-12T14:43:54.182Z,20.69
2022-09-12T14:48:54.265Z,20.67
2022-09-12T14:53:50.483Z,20.72
2022-09-12T14:58:45.099Z,20.66
2022-09-12T15:03:53.365Z,20.60
2022-09-12T15:08:47.250Z,20.51
2022-09-12T15:13:43.168Z,20.44
2022-09-12T15:18:38.143Z,20.54
2022-09-12T15:23:41.320Z,20.55
2022-09-12T15:28:51.942Z,20.51
2022-09-12T15:33:46.682Z,20.60
2022-09-12T15:38:40.035Z,20.57
2022-09-12T15:43:33.271Z,20.54
2022-09-12T15:48:26.493Z,20.51
2022-09-12T15:53:21.296Z,20.52
2022-09-12T15:58:14.613Z,20.57
2022-09-12T16:03:08.439Z,20.56
2022-09-12T16:08:01.827Z,20.53
2022-09-12T16:12:56.792Z,20.49
2022-09-12T16:17:50.719Z,20.45
2022-09-12T16:22:44.574Z,20.47
2022-09-12T16:27:38.746Z,20.40
2022-09-12T16:32:33.524Z,20.30
2022-09-12T16:37:26.894Z,20.24
2022-09-12T16:42:20.253Z,20.19
2022-09-12T16:47:14.112Z,20.08
2022-09-12T16:52:09.312Z,19.96
2022-09-12T16:57:02.651Z,19.93
2022-09-12T17:01:55.997Z,19.80
2022-09-12T17:06:49.491Z,19.76
2022-09-12T17:11:44.711Z,19.52
2022-09-12T17:16:41.177Z,19.23
2022-09-12T17:21:35.354Z,19.08
2022-09-12T17:26:29.015Z,18.97
2022-09-12T17:31:23.710Z,18.83
2022-09-12T17:36:18.973Z,18.65
2022-09-12T17:41:17.515Z,18.55
2022-09-12T17:46:11.187Z,18.49
2022-09-12T17:51:10.765Z,18.48
2022-09-12T17:56:05.592Z,18.38
2022-09-12T18:01:20.782Z,18.30
2022-09-12T18:06:16.033Z,18.29
2022-09-12T18:11:10.014Z,18.25
2022-09-12T18:16:09.690Z,18.17
2022-09-12T18:21:05.695Z,18.06
2022-09-12T18:26:02.186Z,18.03
2022-09-12T18:30:58.602Z,18.07
2022-09-12T18:35:52.112Z,17.96
2022-09-12T18:40:45.619Z,17.87
2022-09-12T18:45:40.314Z,17.79
2022-09-12T18:50:33.819Z,17.69
2022-09-12T18:55:27.147Z,17.54
2022-09-12T19:00:20.554Z,17.58
2022-09-12T19:05:15.212Z,17.61
2022-09-12T19:10:10.043Z,17.36
2022-09-12T19:15:03.981Z,17.25
2022-09-12T19:19:57.259Z,17.17
2022-09-12T19:24:51.924Z,17.17
2022-09-12T19:29:45.171Z,17.18
2022-09-12T19:34:38.428Z,17.21
2022-09-12T19:39:31.800Z,17.20
2022-09-12T19:44:27.614Z,17.18
2022-09-12T19:49:20.951Z,17.08
2022-09-12T19:54:14.232Z,16.95
2022-09-12T19:59:07.521Z,16.76
2022-09-12T20:04:02.771Z,16.77
2022-09-12T20:08:57.081Z,16.81
2022-09-12T20:13:50.983Z,16.82
2022-09-12T20:18:45.124Z,16.59
2022-09-12T20:23:40.864Z,16.60
2022-09-12T20:28:34.444Z,16.61
2022-09-12T20:33:27.696Z,16.68
2022-09-12T20:38:20.889Z,16.60
2022-09-12T20:43:15.454Z,16.50
2022-09-12T20:48:08.712Z,16.26
2022-09-12T20:53:02.022Z,16.25
2022-09-12T20:58:14.681Z,16.12
2022-09-12T21:03:08.339Z,16.12
2022-09-12T21:08:02.280Z,15.99
2022-09-12T21:12:55.560Z,16.10
2022-09-12T21:17:50.266Z,16.15
2022-09-12T21:22:43.483Z,15.98
2022-09-12T21:27:36.704Z,16.00
2022-09-12T21:32:34.528Z,15.84
2022-09-12T21:37:29.360Z,15.53
2022-09-12T21:42:22.853Z,15.48
2022-09-12T21:47:16.071Z,15.50
2022-09-12T21:52:09.847Z,15.27
2022-09-12T21:57:04.735Z,15.42
2022-09-12T22:01:59.069Z,15.43
2022-09-12T22:06:53.609Z,15.52
2022-09-12T22:11:47.106Z,15.61
2022-09-12T22:16:41.741Z,15.45
2022-09-12T22:21:55.086Z,15.48
2022-09-12T22:26:48.292Z,15.20
2022-09-12T22:31:42.965Z,15.35
2022-09-12T22:36:38.934Z,15.27
2022-09-12T22:41:32.842Z,15.30
2022-09-12T22:46:26.911Z,15.34
2022-09-12T22:51:21.520Z,15.09
2022-09-12T22:56:14.830Z,14.75
2022-09-12T23:01:10.012Z,14.74
2022-09-12T23:06:03.577Z,14.80
2022-09-12T23:11:04.583Z,14.96
2022-09-12T23:16:01.542Z,14.82
2022-09-12T23:21:00.216Z,14.86
2022-09-12T23:26:05.708Z,14.76
2022-09-12T23:31:00.216Z,14.84
2022-09-12T23:35:53.603Z,14.97
2022-09-12T23:40:46.961Z,15.06
2022-09-12T23:45:41.651Z,15.19
2022-09-12T23:50:34.893Z,14.89
2022-09-12T23:55:28.194Z,14.80
